sensor_id;sensor_type;location;lat;lon;timestamp;temperature;humidity
2579;DHT22;1299;48.282;14.398;2023-11-22T00:00:20;7.90;99.90
2579;DHT22;1299;48.282;14.398;2023-11-22T00:02:47;7.80;99.90
2579;DHT22;1299;48.282;14.398;2023-11-22T00:05:14;7.90;99.90
2579;DHT22;1299;48.282;14.398;2023-11-22T00:07:41;7.90;99.90
2579;DHT22;1299;48.282;14.398;2023-11-22T00:10:08;7.80;99.90
2579;DHT22;1299;48.282;14.398;2023-11-22T00:12:35;7.90;99.90
2579;DHT22;1299;48.282;14.398;2023-11-22T00:15:06;8.00;99.90
2579;DHT22;1299;48.282;14.398;2023-11-22T00:17:34;7.90;99.90
2579;DHT22;1299;48.282;14.398;2023-11-22T00:20:01;7.90;99.90
2579;DHT22;1299;48.282;14.398;2023-11-22T00:22:31;8.00;99.90
2579;DHT22;1299;48.282;14.398;2023-11-22T00:24:58;8.00;99.90
2579;DHT22;1299;48.282;14.398;2023-11-22T00:27:27;7.90;99.90
2579;DHT22;1299;48.282;14.398;2023-11-22T00:29:55;7.70;99.90
2579;DHT22;1299;48.282;14.398;2023-11-22T00:32:24;7.40;99.90
2579;DHT22;1299;48.282;14.398;2023-11-22T00:34:51;7.40;99.90
2579;DHT22;1299;48.282;14.398;2023-11-22T00:37:18;7.40;99.90
2579;DHT22;1299;48.282;14.398;2023-11-22T00:39:45;7.30;99.90
2579;DHT22;1299;48.282;14.398;2023-11-22T00:42:12;7.30;99.90
2579;DHT22;1299;48.282;14.398;2023-11-22T00:44:39;7.30;99.90
2579;DHT22;1299;48.282;14.398;2023-11-22T00:47:06;7.30;99.90
2579;DHT22;1299;48.282;14.398;2023-11-22T00:49:34;7.40;99.90
2579;DHT22;1299;48.282;14.398;2023-11-22T00:52:01;7.30;99.90
2579;DHT22;1299;48.282;14.398;2023-11-22T00:54:29;7.40;99.90
2579;DHT22;1299;48.282;14.398;2023-11-22T00:56:56;7.60;99.90
2579;DHT22;1299;48.282;14.398;2023-11-22T00:59:23;7.60;99.90
2579;DHT22;1299;48.282;14.398;2023-11-22T01:01:51;7.70;99.90
2579;DHT22;1299;48.282;14.398;2023-11-22T01:04:18;7.80;99.90
2579;DHT22;1299;48.282;14.398;2023-11-22T01:06:46;7.70;99.90
2579;DHT22;1299;48.282;14.398;2023-11-22T01:09:13;7.50;99.90
2579;DHT22;1299;48.282;14.398;2023-11-22T01:11:40;7.60;99.90
2579;DHT22;1299;48.282;14.398;2023-11-22T01:14:07;7.60;99.90
2579;DHT22;1299;48.282;14.398;2023-11-22T01:16:34;7.60;99.90
2579;DHT22;1299;48.282;14.398;2023-11-22T01:19:02;7.60;99.90
2579;DHT22;1299;48.282;14.398;2023-11-22T01:21:29;7.60;99.90
2579;DHT22;1299;48.282;14.398;2023-11-22T01:23:58;7.50;99.90
2579;DHT22;1299;48.282;14.398;2023-11-22T01:26:25;7.50;99.90
2579;DHT22;1299;48.282;14.398;2023-11-22T01:28:52;7.50;99.90
2579;DHT22;1299;48.282;14.398;2023-11-22T01:31:19;7.40;99.90
2579;DHT22;1299;48.282;14.398;2023-11-22T01:33:48;7.40;99.90
2579;DHT22;1299;48.282;14.398;2023-11-22T01:36:15;7.40;99.90
2579;DHT22;1299;48.282;14.398;2023-11-22T01:38:42;7.30;99.90
2579;DHT22;1299;48.282;14.398;2023-11-22T01:41:11;7.20;99.90
2579;DHT22;1299;48.282;14.398;2023-11-22T01:43:39;7.20;99.90
2579;DHT22;1299;48.282;14.398;2023-11-22T01:46:07;7.20;99.90
2579;DHT22;1299;48.282;14.398;2023-11-22T01:48:34;7.10;99.90
2579;DHT22;1299;48.282;14.398;2023-11-22T01:51:02;7.10;99.90
2579;DHT22;1299;48.282;14.398;2023-11-22T01:53:31;7.20;99.90
2579;DHT22;1299;48.282;14.398;2023-11-22T01:55:58;7.00;99.90
2579;DHT22;1299;48.282;14.398;2023-11-22T01:58:27;7.00;99.90
2579;DHT22;1299;48.282;14.398;2023-11-22T02:00:55;7.00;99.90
2579;DHT22;1299;48.282;14.398;2023-11-22T02:03:24;7.00;99.90
2579;DHT22;1299;48.282;14.398;2023-11-22T02:05:50;6.90;99.90
2579;DHT22;1299;48.282;14.398;2023-11-22T02:08:19;6.90;99.90
2579;DHT22;1299;48.282;14.398;2023-11-22T02:10:57;6.80;99.90
2579;DHT22;1299;48.282;14.398;2023-11-22T02:13:24;6.90;99.90
2579;DHT22;1299;48.282;14.398;2023-11-22T02:15:53;6.80;99.90
2579;DHT22;1299;48.282;14.398;2023-11-22T02:18:21;6.70;99.90
2579;DHT22;1299;48.282;14.398;2023-11-22T02:20:49;6.80;99.90
2579;DHT22;1299;48.282;14.398;2023-11-22T02:23:18;6.60;99.90
2579;DHT22;1299;48.282;14.398;2023-11-22T02:25:46;6.60;99.90
2579;DHT22;1299;48.282;14.398;2023-11-22T02:28:13;6.60;99.90
2579;DHT22;1299;48.282;14.398;2023-11-22T02:30:40;6.70;99.90
2579;DHT22;1299;48.282;14.398;2023-11-22T02:33:07;6.50;99.90
2579;DHT22;1299;48.282;14.398;2023-11-22T02:35:34;6.50;99.90
2579;DHT22;1299;48.282;14.398;2023-11-22T02:38:01;6.40;99.90
2579;DHT22;1299;48.282;14.398;2023-11-22T02:40:29;6.40;99.90
2579;DHT22;1299;48.282;14.398;2023-11-22T02:42:56;6.40;99.90
2579;DHT22;1299;48.282;14.398;2023-11-22T02:45:26;6.20;99.90
2579;DHT22;1299;48.282;14.398;2023-11-22T02:47:53;6.20;99.90
2579;DHT22;1299;48.282;14.398;2023-11-22T02:50:20;6.20;99.90
2579;DHT22;1299;48.282;14.398;2023-11-22T02:52:47;6.10;99.90
2579;DHT22;1299;48.282;14.398;2023-11-22T02:55:14;6.00;99.90
2579;DHT22;1299;48.282;14.398;2023-11-22T02:57:43;6.00;99.90
2579;DHT22;1299;48.282;14.398;2023-11-22T03:00:11;5.80;99.90
2579;DHT22;1299;48.282;14.398;2023-11-22T03:02:40;5.80;99.90
2579;DHT22;1299;48.282;14.398;2023-11-22T03:05:08;5.80;99.90
2579;DHT22;1299;48.282;14.398;2023-11-22T03:07:35;5.80;99.90
2579;DHT22;1299;48.282;14.398;2023-11-22T03:10:02;5.70;99.90
2579;DHT22;1299;48.282;14.398;2023-11-22T03:12:29;5.80;99.90
2579;DHT22;1299;48.282;14.398;2023-11-22T03:14:58;5.90;99.90
2579;DHT22;1299;48.282;14.398;2023-11-22T03:17:27;5.90;99.90
2579;DHT22;1299;48.282;14.398;2023-11-22T03:19:56;5.90;99.90
2579;DHT22;1299;48.282;14.398;2023-11-22T03:22:23;5.80;99.90
2579;DHT22;1299;48.282;14.398;2023-11-22T03:24:50;6.00;99.90
2579;DHT22;1299;48.282;14.398;2023-11-22T03:27:18;5.90;99.90
2579;DHT22;1299;48.282;14.398;2023-11-22T03:29:47;5.90;99.90
2579;DHT22;1299;48.282;14.398;2023-11-22T03:32:15;6.00;99.90
2579;DHT22;1299;48.282;14.398;2023-11-22T03:34:42;5.90;99.90
2579;DHT22;1299;48.282;14.398;2023-11-22T03:37:09;5.80;99.90
2579;DHT22;1299;48.282;14.398;2023-11-22T03:39:36;5.80;99.90
2579;DHT22;1299;48.282;14.398;2023-11-22T03:42:04;5.90;99.90
2579;DHT22;1299;48.282;14.398;2023-11-22T03:44:31;6.00;99.90
2579;DHT22;1299;48.282;14.398;2023-11-22T03:46:58;5.70;99.90
2579;DHT22;1299;48.282;14.398;2023-11-22T03:49:26;5.80;99.90
2579;DHT22;1299;48.282;14.398;2023-11-22T03:51:53;5.90;99.90
2579;DHT22;1299;48.282;14.398;2023-11-22T03:54:20;6.00;99.90
2579;DHT22;1299;48.282;14.398;2023-11-22T03:56:47;5.70;99.90
2579;DHT22;1299;48.282;14.398;2023-11-22T03:59:14;5.90;99.90
2579;DHT22;1299;48.282;14.398;2023-11-22T04:01:41;5.80;99.90
2579;DHT22;1299;48.282;14.398;2023-11-22T04:04:08;5.80;99.90
2579;DHT22;1299;48.282;14.398;2023-11-22T04:06:36;5.80;99.90
2579;DHT22;1299;48.282;14.398;2023-11-22T04:09:04;5.80;99.90
2579;DHT22;1299;48.282;14.398;2023-11-22T04:11:31;5.80;99.90
2579;DHT22;1299;48.282;14.398;2023-11-22T04:13:57;5.60;99.90
2579;DHT22;1299;48.282;14.398;2023-11-22T04:16:23;5.70;99.90
2579;DHT22;1299;48.282;14.398;2023-11-22T04:18:51;5.60;99.90
2579;DHT22;1299;48.282;14.398;2023-11-22T04:21:18;5.60;99.90
2579;DHT22;1299;48.282;14.398;2023-11-22T04:23:46;5.70;99.90
2579;DHT22;1299;48.282;14.398;2023-11-22T04:26:13;5.50;99.90
2579;DHT22;1299;48.282;14.398;2023-11-22T04:28:41;5.60;99.90
2579;DHT22;1299;48.282;14.398;2023-11-22T04:31:08;5.40;99.90
2579;DHT22;1299;48.282;14.398;2023-11-22T04:33:35;5.40;99.90
2579;DHT22;1299;48.282;14.398;2023-11-22T04:36:03;5.20;99.90
2579;DHT22;1299;48.282;14.398;2023-11-22T04:38:30;5.30;99.90
2579;DHT22;1299;48.282;14.398;2023-11-22T04:40:58;5.40;99.90
2579;DHT22;1299;48.282;14.398;2023-11-22T04:43:25;5.40;99.90
2579;DHT22;1299;48.282;14.398;2023-11-22T04:45:52;5.20;99.90
2579;DHT22;1299;48.282;14.398;2023-11-22T04:48:20;5.20;99.90
2579;DHT22;1299;48.282;14.398;2023-11-22T04:50:47;5.20;99.90
2579;DHT22;1299;48.282;14.398;2023-11-22T04:53:14;5.00;99.90
2579;DHT22;1299;48.282;14.398;2023-11-22T04:55:44;5.10;99.90
2579;DHT22;1299;48.282;14.398;2023-11-22T04:58:12;5.00;99.90
2579;DHT22;1299;48.282;14.398;2023-11-22T05:00:39;5.10;99.90
2579;DHT22;1299;48.282;14.398;2023-11-22T05:03:06;5.20;99.90
2579;DHT22;1299;48.282;14.398;2023-11-22T05:05:33;5.30;99.90
2579;DHT22;1299;48.282;14.398;2023-11-22T05:08:00;5.30;99.90
2579;DHT22;1299;48.282;14.398;2023-11-22T05:10:28;5.20;99.90
2579;DHT22;1299;48.282;14.398;2023-11-22T05:12:55;5.10;99.90
2579;DHT22;1299;48.282;14.398;2023-11-22T05:15:26;5.00;99.90
2579;DHT22;1299;48.282;14.398;2023-11-22T05:17:53;5.00;99.90
2579;DHT22;1299;48.282;14.398;2023-11-22T05:20:20;5.10;99.90
2579;DHT22;1299;48.282;14.398;2023-11-22T05:22:47;5.20;99.90
2579;DHT22;1299;48.282;14.398;2023-11-22T05:25:14;5.30;99.90
2579;DHT22;1299;48.282;14.398;2023-11-22T05:27:42;5.00;99.90
2579;DHT22;1299;48.282;14.398;2023-11-22T05:30:10;5.10;99.90
2579;DHT22;1299;48.282;14.398;2023-11-22T05:32:39;5.20;99.90
2579;DHT22;1299;48.282;14.398;2023-11-22T05:35:07;5.30;99.90
2579;DHT22;1299;48.282;14.398;2023-11-22T05:37:35;5.40;99.90
2579;DHT22;1299;48.282;14.398;2023-11-22T05:40:04;5.40;99.90
2579;DHT22;1299;48.282;14.398;2023-11-22T05:42:31;5.50;99.90
2579;DHT22;1299;48.282;14.398;2023-11-22T05:45:00;5.50;99.90
2579;DHT22;1299;48.282;14.398;2023-11-22T05:47:29;5.50;99.90
2579;DHT22;1299;48.282;14.398;2023-11-22T05:49:57;5.50;99.90
2579;DHT22;1299;48.282;14.398;2023-11-22T05:52:24;5.50;99.90
2579;DHT22;1299;48.282;14.398;2023-11-22T05:54:51;5.50;99.90
2579;DHT22;1299;48.282;14.398;2023-11-22T05:57:18;5.40;99.90
2579;DHT22;1299;48.282;14.398;2023-11-22T05:59:45;5.40;99.90
2579;DHT22;1299;48.282;14.398;2023-11-22T06:02:13;5.40;99.90
2579;DHT22;1299;48.282;14.398;2023-11-22T06:04:40;5.50;99.90
2579;DHT22;1299;48.282;14.398;2023-11-22T06:07:08;5.50;99.90
2579;DHT22;1299;48.282;14.398;2023-11-22T06:09:35;5.40;99.90
2579;DHT22;1299;48.282;14.398;2023-11-22T06:12:03;5.50;99.90
2579;DHT22;1299;48.282;14.398;2023-11-22T06:14:30;5.40;99.90
2579;DHT22;1299;48.282;14.398;2023-11-22T06:16:57;5.30;99.90
2579;DHT22;1299;48.282;14.398;2023-11-22T06:19:24;5.30;99.90
2579;DHT22;1299;48.282;14.398;2023-11-22T06:21:51;5.40;99.90
2579;DHT22;1299;48.282;14.398;2023-11-22T06:24:20;5.50;99.90
2579;DHT22;1299;48.282;14.398;2023-11-22T06:26:47;5.50;99.90
2579;DHT22;1299;48.282;14.398;2023-11-22T06:29:15;5.30;99.90
2579;DHT22;1299;48.282;14.398;2023-11-22T06:31:42;5.30;99.90
2579;DHT22;1299;48.282;14.398;2023-11-22T06:34:09;5.30;99.90
2579;DHT22;1299;48.282;14.398;2023-11-22T06:36:35;5.30;99.90
2579;DHT22;1299;48.282;14.398;2023-11-22T06:39:03;5.20;99.90
2579;DHT22;1299;48.282;14.398;2023-11-22T06:41:33;5.30;99.90
2579;DHT22;1299;48.282;14.398;2023-11-22T06:44:00;5.30;99.90
2579;DHT22;1299;48.282;14.398;2023-11-22T06:46:28;5.20;99.90
2579;DHT22;1299;48.282;14.398;2023-11-22T06:48:55;5.30;99.90
2579;DHT22;1299;48.282;14.398;2023-11-22T06:51:22;5.10;99.90
2579;DHT22;1299;48.282;14.398;2023-11-22T06:53:49;5.20;99.90
2579;DHT22;1299;48.282;14.398;2023-11-22T06:56:17;5.30;99.90
2579;DHT22;1299;48.282;14.398;2023-11-22T06:58:45;5.00;99.90
2579;DHT22;1299;48.282;14.398;2023-11-22T07:01:12;5.20;99.90
2579;DHT22;1299;48.282;14.398;2023-11-22T07:03:41;5.30;99.90
2579;DHT22;1299;48.282;14.398;2023-11-22T07:06:07;5.30;99.90
2579;DHT22;1299;48.282;14.398;2023-11-22T07:08:35;5.30;99.90
2579;DHT22;1299;48.282;14.398;2023-11-22T07:11:02;5.10;99.90
2579;DHT22;1299;48.282;14.398;2023-11-22T07:13:29;5.20;99.90
2579;DHT22;1299;48.282;14.398;2023-11-22T07:15:58;5.40;99.90
2579;DHT22;1299;48.282;14.398;2023-11-22T07:18:25;5.30;99.90
2579;DHT22;1299;48.282;14.398;2023-11-22T07:20:53;5.40;99.90
2579;DHT22;1299;48.282;14.398;2023-11-22T07:23:20;5.20;99.90
2579;DHT22;1299;48.282;14.398;2023-11-22T07:25:52;5.00;99.90
2579;DHT22;1299;48.282;14.398;2023-11-22T07:28:20;5.20;99.90
2579;DHT22;1299;48.282;14.398;2023-11-22T07:30:47;5.30;99.90
2579;DHT22;1299;48.282;14.398;2023-11-22T07:33:16;5.10;99.90
2579;DHT22;1299;48.282;14.398;2023-11-22T07:35:44;5.30;99.90
2579;DHT22;1299;48.282;14.398;2023-11-22T07:38:11;5.30;99.90
2579;DHT22;1299;48.282;14.398;2023-11-22T07:40:39;5.30;99.90
2579;DHT22;1299;48.282;14.398;2023-11-22T07:43:07;5.50;99.90
2579;DHT22;1299;48.282;14.398;2023-11-22T07:45:34;5.00;99.90
2579;DHT22;1299;48.282;14.398;2023-11-22T07:48:03;4.90;99.90
2579;DHT22;1299;48.282;14.398;2023-11-22T07:50:31;5.20;99.90
2579;DHT22;1299;48.282;14.398;2023-11-22T07:52:59;5.20;99.90
2579;DHT22;1299;48.282;14.398;2023-11-22T07:55:29;5.40;99.90
2579;DHT22;1299;48.282;14.398;2023-11-22T07:57:56;5.40;99.90
2579;DHT22;1299;48.282;14.398;2023-11-22T08:00:24;5.60;99.90
2579;DHT22;1299;48.282;14.398;2023-11-22T08:02:51;5.60;99.90
2579;DHT22;1299;48.282;14.398;2023-11-22T08:05:19;5.40;99.90
2579;DHT22;1299;48.282;14.398;2023-11-22T08:07:50;5.30;99.90
2579;DHT22;1299;48.282;14.398;2023-11-22T08:10:17;5.40;99.90
2579;DHT22;1299;48.282;14.398;2023-11-22T08:12:46;5.20;99.90
2579;DHT22;1299;48.282;14.398;2023-11-22T08:15:14;5.20;99.90
2579;DHT22;1299;48.282;14.398;2023-11-22T08:17:41;5.30;99.90
2579;DHT22;1299;48.282;14.398;2023-11-22T08:20:09;5.10;99.90
2579;DHT22;1299;48.282;14.398;2023-11-22T08:22:38;5.00;99.90
2579;DHT22;1299;48.282;14.398;2023-11-22T08:25:08;4.90;99.90
2579;DHT22;1299;48.282;14.398;2023-11-22T08:27:38;5.00;99.90
2579;DHT22;1299;48.282;14.398;2023-11-22T08:30:09;4.90;99.90
2579;DHT22;1299;48.282;14.398;2023-11-22T08:32:39;4.70;99.90
2579;DHT22;1299;48.282;14.398;2023-11-22T08:35:08;4.80;99.90
2579;DHT22;1299;48.282;14.398;2023-11-22T08:37:35;5.00;99.90
2579;DHT22;1299;48.282;14.398;2023-11-22T08:40:07;5.00;99.90
2579;DHT22;1299;48.282;14.398;2023-11-22T08:42:36;5.00;99.90
2579;DHT22;1299;48.282;14.398;2023-11-22T08:45:04;5.00;99.90
2579;DHT22;1299;48.282;14.398;2023-11-22T08:47:31;5.10;99.90
2579;DHT22;1299;48.282;14.398;2023-11-22T08:49:58;4.80;99.90
2579;DHT22;1299;48.282;14.398;2023-11-22T08:52:25;4.80;99.90
2579;DHT22;1299;48.282;14.398;2023-11-22T08:54:52;4.80;99.90
2579;DHT22;1299;48.282;14.398;2023-11-22T08:57:20;4.80;99.90
2579;DHT22;1299;48.282;14.398;2023-11-22T08:59:47;4.90;99.90
2579;DHT22;1299;48.282;14.398;2023-11-22T09:02:14;5.00;99.90
2579;DHT22;1299;48.282;14.398;2023-11-22T09:04:42;5.10;99.90
2579;DHT22;1299;48.282;14.398;2023-11-22T09:07:09;4.80;99.90
2579;DHT22;1299;48.282;14.398;2023-11-22T09:09:40;4.70;99.90
2579;DHT22;1299;48.282;14.398;2023-11-22T09:12:08;4.50;99.90
2579;DHT22;1299;48.282;14.398;2023-11-22T09:14:40;4.70;99.90
2579;DHT22;1299;48.282;14.398;2023-11-22T09:17:08;4.40;99.90
2579;DHT22;1299;48.282;14.398;2023-11-22T09:19:35;4.30;99.90
2579;DHT22;1299;48.282;14.398;2023-11-22T09:22:03;4.20;99.90
2579;DHT22;1299;48.282;14.398;2023-11-22T09:24:32;4.20;99.90
2579;DHT22;1299;48.282;14.398;2023-11-22T09:26:59;4.20;99.90
2579;DHT22;1299;48.282;14.398;2023-11-22T09:29:29;4.20;99.90
2579;DHT22;1299;48.282;14.398;2023-11-22T09:31:57;4.20;99.90
2579;DHT22;1299;48.282;14.398;2023-11-22T09:34:25;4.30;99.90
2579;DHT22;1299;48.282;14.398;2023-11-22T09:36:52;4.20;99.90
2579;DHT22;1299;48.282;14.398;2023-11-22T09:39:19;4.30;99.90
2579;DHT22;1299;48.282;14.398;2023-11-22T09:41:47;4.60;99.90
2579;DHT22;1299;48.282;14.398;2023-11-22T09:44:17;4.60;99.90
2579;DHT22;1299;48.282;14.398;2023-11-22T09:46:44;4.40;99.90
2579;DHT22;1299;48.282;14.398;2023-11-22T09:49:16;4.60;99.90
2579;DHT22;1299;48.282;14.398;2023-11-22T09:51:47;4.70;99.90
2579;DHT22;1299;48.282;14.398;2023-11-22T09:54:16;5.10;99.90
2579;DHT22;1299;48.282;14.398;2023-11-22T09:56:45;5.00;99.90
2579;DHT22;1299;48.282;14.398;2023-11-22T09:59:17;5.00;99.90
2579;DHT22;1299;48.282;14.398;2023-11-22T10:01:45;5.20;99.90
2579;DHT22;1299;48.282;14.398;2023-11-22T10:04:13;5.10;99.90
2579;DHT22;1299;48.282;14.398;2023-11-22T10:06:41;5.00;99.90
2579;DHT22;1299;48.282;14.398;2023-11-22T10:09:12;4.70;99.90
2579;DHT22;1299;48.282;14.398;2023-11-22T10:11:39;4.50;99.90
2579;DHT22;1299;48.282;14.398;2023-11-22T10:14:09;4.40;99.90
2579;DHT22;1299;48.282;14.398;2023-11-22T10:16:36;4.40;99.90
2579;DHT22;1299;48.282;14.398;2023-11-22T10:19:04;4.40;99.90
2579;DHT22;1299;48.282;14.398;2023-11-22T10:21:34;4.50;99.90
2579;DHT22;1299;48.282;14.398;2023-11-22T10:24:02;4.50;99.90
2579;DHT22;1299;48.282;14.398;2023-11-22T10:26:30;4.50;99.90
2579;DHT22;1299;48.282;14.398;2023-11-22T10:28:57;4.40;99.90
2579;DHT22;1299;48.282;14.398;2023-11-22T10:31:24;4.40;99.90
2579;DHT22;1299;48.282;14.398;2023-11-22T10:33:52;4.50;99.90
2579;DHT22;1299;48.282;14.398;2023-11-22T10:36:21;4.60;99.90
2579;DHT22;1299;48.282;14.398;2023-11-22T10:38:50;4.70;99.90
2579;DHT22;1299;48.282;14.398;2023-11-22T10:41:20;4.80;99.90
2579;DHT22;1299;48.282;14.398;2023-11-22T10:43:48;4.70;99.90
2579;DHT22;1299;48.282;14.398;2023-11-22T10:46:17;4.60;99.90
2579;DHT22;1299;48.282;14.398;2023-11-22T10:48:46;4.60;99.90
2579;DHT22;1299;48.282;14.398;2023-11-22T10:51:14;4.70;99.90
2579;DHT22;1299;48.282;14.398;2023-11-22T10:53:48;4.70;99.90
2579;DHT22;1299;48.282;14.398;2023-11-22T10:56:17;4.90;99.90
2579;DHT22;1299;48.282;14.398;2023-11-22T10:58:47;4.70;99.90
2579;DHT22;1299;48.282;14.398;2023-11-22T11:01:16;4.70;99.90
2579;DHT22;1299;48.282;14.398;2023-11-22T11:03:48;4.70;99.90
2579;DHT22;1299;48.282;14.398;2023-11-22T11:06:20;4.70;99.90
2579;DHT22;1299;48.282;14.398;2023-11-22T11:08:54;4.70;99.90
2579;DHT22;1299;48.282;14.398;2023-11-22T11:11:23;4.70;99.90
2579;DHT22;1299;48.282;14.398;2023-11-22T11:13:51;4.70;99.90
2579;DHT22;1299;48.282;14.398;2023-11-22T11:16:20;4.80;99.90
2579;DHT22;1299;48.282;14.398;2023-11-22T11:18:47;4.90;99.90
2579;DHT22;1299;48.282;14.398;2023-11-22T11:21:15;4.90;99.90
2579;DHT22;1299;48.282;14.398;2023-11-22T11:23:43;4.80;99.90
2579;DHT22;1299;48.282;14.398;2023-11-22T11:26:15;4.70;99.90
2579;DHT22;1299;48.282;14.398;2023-11-22T11:28:47;4.90;99.90
2579;DHT22;1299;48.282;14.398;2023-11-22T11:31:14;4.90;99.90
2579;DHT22;1299;48.282;14.398;2023-11-22T11:33:54;5.00;99.90
2579;DHT22;1299;48.282;14.398;2023-11-22T11:36:23;5.10;99.90
2579;DHT22;1299;48.282;14.398;2023-11-22T11:38:51;5.20;99.90
2579;DHT22;1299;48.282;14.398;2023-11-22T11:41:24;5.20;99.90
2579;DHT22;1299;48.282;14.398;2023-11-22T11:43:54;5.50;99.90
2579;DHT22;1299;48.282;14.398;2023-11-22T11:46:22;5.50;99.90
2579;DHT22;1299;48.282;14.398;2023-11-22T11:48:51;5.60;99.90
2579;DHT22;1299;48.282;14.398;2023-11-22T11:51:20;5.50;99.90
2579;DHT22;1299;48.282;14.398;2023-11-22T11:53:48;5.70;99.90
2579;DHT22;1299;48.282;14.398;2023-11-22T11:56:16;5.70;99.90
2579;DHT22;1299;48.282;14.398;2023-11-22T11:58:43;5.90;99.90
2579;DHT22;1299;48.282;14.398;2023-11-22T12:01:13;6.00;99.90
2579;DHT22;1299;48.282;14.398;2023-11-22T12:03:42;6.00;99.90
2579;DHT22;1299;48.282;14.398;2023-11-22T12:06:09;6.00;99.90
2579;DHT22;1299;48.282;14.398;2023-11-22T12:08:36;6.10;99.90
2579;DHT22;1299;48.282;14.398;2023-11-22T12:11:04;5.90;99.90
2579;DHT22;1299;48.282;14.398;2023-11-22T12:13:34;5.70;99.90
2579;DHT22;1299;48.282;14.398;2023-11-22T12:16:05;5.60;99.90
2579;DHT22;1299;48.282;14.398;2023-11-22T12:18:40;5.50;99.90
2579;DHT22;1299;48.282;14.398;2023-11-22T12:21:08;5.60;99.90
2579;DHT22;1299;48.282;14.398;2023-11-22T12:23:39;5.80;99.90
2579;DHT22;1299;48.282;14.398;2023-11-22T12:26:10;6.00;99.90
2579;DHT22;1299;48.282;14.398;2023-11-22T12:28:40;5.90;99.90
2579;DHT22;1299;48.282;14.398;2023-11-22T12:31:08;5.90;99.90
2579;DHT22;1299;48.282;14.398;2023-11-22T12:33:35;6.10;99.90
2579;DHT22;1299;48.282;14.398;2023-11-22T12:36:04;6.10;99.90
2579;DHT22;1299;48.282;14.398;2023-11-22T12:38:33;6.10;99.90
2579;DHT22;1299;48.282;14.398;2023-11-22T12:41:01;6.20;99.90
2579;DHT22;1299;48.282;14.398;2023-11-22T12:43:29;6.20;99.90
2579;DHT22;1299;48.282;14.398;2023-11-22T12:45:59;6.40;99.90
2579;DHT22;1299;48.282;14.398;2023-11-22T12:48:26;6.40;99.90
2579;DHT22;1299;48.282;14.398;2023-11-22T12:50:56;6.60;99.90
2579;DHT22;1299;48.282;14.398;2023-11-22T12:53:25;6.60;99.90
2579;DHT22;1299;48.282;14.398;2023-11-22T12:55:54;6.60;99.90
2579;DHT22;1299;48.282;14.398;2023-11-22T12:58:23;6.70;99.90
2579;DHT22;1299;48.282;14.398;2023-11-22T13:00:51;6.40;99.90
2579;DHT22;1299;48.282;14.398;2023-11-22T13:03:23;6.70;99.90
2579;DHT22;1299;48.282;14.398;2023-11-22T13:05:51;6.60;99.90
2579;DHT22;1299;48.282;14.398;2023-11-22T13:08:18;6.70;99.90
2579;DHT22;1299;48.282;14.398;2023-11-22T13:10:47;6.50;99.90
2579;DHT22;1299;48.282;14.398;2023-11-22T13:13:18;6.30;99.90
2579;DHT22;1299;48.282;14.398;2023-11-22T13:15:44;6.40;99.90
2579;DHT22;1299;48.282;14.398;2023-11-22T13:18:12;6.30;99.90
2579;DHT22;1299;48.282;14.398;2023-11-22T13:20:39;6.40;99.90
2579;DHT22;1299;48.282;14.398;2023-11-22T13:23:06;6.50;99.90
2579;DHT22;1299;48.282;14.398;2023-11-22T13:25:34;6.50;99.90
2579;DHT22;1299;48.282;14.398;2023-11-22T13:28:03;6.40;99.90
2579;DHT22;1299;48.282;14.398;2023-11-22T13:30:30;6.10;99.90
2579;DHT22;1299;48.282;14.398;2023-11-22T13:32:57;6.00;99.90
2579;DHT22;1299;48.282;14.398;2023-11-22T13:35:25;6.20;99.90
2579;DHT22;1299;48.282;14.398;2023-11-22T13:37:57;6.20;99.90
2579;DHT22;1299;48.282;14.398;2023-11-22T13:40:25;6.10;99.90
2579;DHT22;1299;48.282;14.398;2023-11-22T13:42:56;5.90;99.90
2579;DHT22;1299;48.282;14.398;2023-11-22T13:45:25;5.80;99.90
2579;DHT22;1299;48.282;14.398;2023-11-22T13:47:52;5.70;99.90
2579;DHT22;1299;48.282;14.398;2023-11-22T13:50:23;5.80;99.90
2579;DHT22;1299;48.282;14.398;2023-11-22T13:52:53;5.90;99.90
2579;DHT22;1299;48.282;14.398;2023-11-22T13:55:20;5.80;99.90
2579;DHT22;1299;48.282;14.398;2023-11-22T13:57:49;5.80;99.90
2579;DHT22;1299;48.282;14.398;2023-11-22T14:00:17;5.80;99.90
2579;DHT22;1299;48.282;14.398;2023-11-22T14:02:47;5.80;99.90
2579;DHT22;1299;48.282;14.398;2023-11-22T14:05:14;5.90;99.90
2579;DHT22;1299;48.282;14.398;2023-11-22T14:07:41;5.70;99.90
2579;DHT22;1299;48.282;14.398;2023-11-22T14:10:08;5.80;99.90
2579;DHT22;1299;48.282;14.398;2023-11-22T14:12:36;5.80;99.90
2579;DHT22;1299;48.282;14.398;2023-11-22T14:15:04;5.50;99.90
2579;DHT22;1299;48.282;14.398;2023-11-22T14:17:31;5.60;99.90
2579;DHT22;1299;48.282;14.398;2023-11-22T14:20:00;5.70;99.90
2579;DHT22;1299;48.282;14.398;2023-11-22T14:22:26;5.50;99.90
2579;DHT22;1299;48.282;14.398;2023-11-22T14:24:53;5.40;99.90
2579;DHT22;1299;48.282;14.398;2023-11-22T14:27:21;5.50;99.90
2579;DHT22;1299;48.282;14.398;2023-11-22T14:29:48;5.30;99.90
2579;DHT22;1299;48.282;14.398;2023-11-22T14:32:16;5.30;99.90
2579;DHT22;1299;48.282;14.398;2023-11-22T14:34:43;5.30;99.90
2579;DHT22;1299;48.282;14.398;2023-11-22T14:37:12;5.20;99.90
2579;DHT22;1299;48.282;14.398;2023-11-22T14:39:39;5.20;99.90
2579;DHT22;1299;48.282;14.398;2023-11-22T14:42:06;5.20;99.90
2579;DHT22;1299;48.282;14.398;2023-11-22T14:44:34;5.30;99.90
2579;DHT22;1299;48.282;14.398;2023-11-22T14:47:01;5.20;99.90
2579;DHT22;1299;48.282;14.398;2023-11-22T14:49:32;5.20;99.90
2579;DHT22;1299;48.282;14.398;2023-11-22T14:51:59;5.10;99.90
2579;DHT22;1299;48.282;14.398;2023-11-22T14:54:27;5.00;99.90
2579;DHT22;1299;48.282;14.398;2023-11-22T14:56:54;5.10;99.90
2579;DHT22;1299;48.282;14.398;2023-11-22T14:59:27;5.10;99.90
2579;DHT22;1299;48.282;14.398;2023-11-22T15:01:56;5.30;99.90
2579;DHT22;1299;48.282;14.398;2023-11-22T15:04:23;5.40;99.90
2579;DHT22;1299;48.282;14.398;2023-11-22T15:06:51;5.50;99.90
2579;DHT22;1299;48.282;14.398;2023-11-22T15:09:18;5.50;99.90
2579;DHT22;1299;48.282;14.398;2023-11-22T15:11:48;5.50;99.90
2579;DHT22;1299;48.282;14.398;2023-11-22T15:14:15;5.40;99.90
2579;DHT22;1299;48.282;14.398;2023-11-22T15:16:42;5.60;99.90
2579;DHT22;1299;48.282;14.398;2023-11-22T15:19:09;5.60;99.90
2579;DHT22;1299;48.282;14.398;2023-11-22T15:21:36;5.40;99.90
2579;DHT22;1299;48.282;14.398;2023-11-22T15:24:04;5.30;99.90
2579;DHT22;1299;48.282;14.398;2023-11-22T15:26:31;5.40;99.90
2579;DHT22;1299;48.282;14.398;2023-11-22T15:29:00;5.50;99.90
2579;DHT22;1299;48.282;14.398;2023-11-22T15:31:27;5.50;99.90
2579;DHT22;1299;48.282;14.398;2023-11-22T15:33:54;5.40;99.90
2579;DHT22;1299;48.282;14.398;2023-11-22T15:36:21;5.40;99.90
2579;DHT22;1299;48.282;14.398;2023-11-22T15:38:48;5.40;99.90
2579;DHT22;1299;48.282;14.398;2023-11-22T15:41:15;5.50;99.90
2579;DHT22;1299;48.282;14.398;2023-11-22T15:43:43;5.50;99.90
2579;DHT22;1299;48.282;14.398;2023-11-22T15:46:12;5.60;99.90
2579;DHT22;1299;48.282;14.398;2023-11-22T15:48:40;5.40;99.90
2579;DHT22;1299;48.282;14.398;2023-11-22T15:51:09;5.40;99.90
2579;DHT22;1299;48.282;14.398;2023-11-22T15:53:37;5.40;99.90
2579;DHT22;1299;48.282;14.398;2023-11-22T15:56:04;5.30;99.90
2579;DHT22;1299;48.282;14.398;2023-11-22T15:58:34;5.40;99.90
2579;DHT22;1299;48.282;14.398;2023-11-22T16:01:02;5.30;99.90
2579;DHT22;1299;48.282;14.398;2023-11-22T16:03:31;5.40;99.90
2579;DHT22;1299;48.282;14.398;2023-11-22T16:06:00;5.50;99.90